Time;durP1;ratioP1;P1;durP2;ratioP2;P2;SDS_P1;SDS_P2;PMS_P1;PMS_P2;Temp;Humidity;BMP_temperature;BMP_pressure;BME280_temperature;BME280_humidity;BME280_pressure;Samples;Min_cycle;Max_cycle;Signal;HPM_P1;HPM_P2
2022/06/15 00:00:43;;;;;;;8.63;3.23;;;14.60;12.60;;;;;;5061787;28;20191;-60
2022/06/15 00:03:10;;;;;;;5.37;2.90;;;;;;;;;;5060374;28;20693;-60
2022/06/15 00:05:38;;;;;;;6.37;2.93;;;;;;;;;;5060953;28;20704;-60
2022/06/15 00:08:05;;;;;;;5.70;2.93;;;;;;;;;;5061751;28;20188;-61
2022/06/15 00:10:33;;;;;;;5.03;3.20;;;14.40;64.70;;;;;;5050034;28;20198;-60
2022/06/15 00:13:00;;;;;;;4.93;2.90;;;;;;;;;;5060811;28;20563;-60
2022/06/15 00:15:28;;;;;;;9.83;3.33;;;;;;;;;;5050491;28;20190;-60
2022/06/15 00:17:55;;;;;;;6.93;2.93;;;;;;;;;;5061236;28;20245;-60
2022/06/15 00:20:23;;;;;;;5.50;3.00;;;;;;;;;;5060486;28;20238;-60
2022/06/15 00:22:49;;;;;;;12.83;3.80;;;13.80;99.90;;;;;;5048925;28;20191;-60
2022/06/15 00:25:17;;;;;;;9.23;3.50;;;14.20;1.00;;;;;;5063913;28;20382;-60
2022/06/15 00:27:44;;;;;;;4.83;3.07;;;;;;;;;;5063782;28;20661;-59
2022/06/15 00:30:12;;;;;;;6.13;3.67;;;14.00;1.00;;;;;;5061519;28;20715;-59
2022/06/15 00:32:39;;;;;;;7.17;3.30;;;14.00;1.00;;;;;;5044549;28;20207;-60
2022/06/15 00:35:07;;;;;;;7.20;3.70;;;14.00;1.00;;;;;;5061391;28;20195;-60
2022/06/15 00:37:36;;;;;;;4.83;2.87;;;14.00;1.00;;;;;;5062830;28;20593;-60
2022/06/15 00:40:06;;;;;;;5.50;3.27;;;13.70;1.00;;;;;;5060885;28;20307;-60
2022/06/15 00:42:34;;;;;;;7.37;3.30;;;13.90;1.00;;;;;;5045318;28;20210;-60
2022/06/15 00:45:02;;;;;;;3.57;2.80;;;13.80;1.00;;;;;;5062903;28;20207;-60
2022/06/15 00:47:33;;;;;;;7.40;3.10;;;13.60;9.10;;;;;;5051161;28;21974;-60
2022/06/15 00:50:26;;;;;;;4.30;3.10;;;13.70;1.00;;;;;;5061867;28;20194;-60
2022/06/15 00:53:05;;;;;;;4.40;2.87;;;13.80;1.00;;;;;;5043203;28;20286;-59
2022/06/15 00:55:34;;;;;;;5.53;3.03;;;14.00;1.00;;;;;;5051615;28;20191;-59
2022/06/15 00:58:05;;;;;;;6.03;2.80;;;14.00;1.00;;;;;;5062498;28;20191;-59
2022/06/15 01:00:33;;;;;;;7.20;2.90;;;13.90;1.00;;;;;;5062377;28;20196;-59
2022/06/15 01:03:00;;;;;;;5.90;3.07;;;13.90;1.00;;;;;;5059663;28;20247;-59
2022/06/15 01:05:44;;;;;;;6.60;3.40;;;13.80;1.00;;;;;;5061503;28;20200;-60
2022/06/15 01:08:40;;;;;;;7.90;2.93;;;13.70;1.00;;;;;;5061281;28;20195;-59
2022/06/15 01:11:36;;;;;;;6.23;3.13;;;13.60;1.00;;;;;;5017828;28;20215;-60
2022/06/15 01:14:23;;;;;;;6.93;3.83;;;13.50;1.00;;;;;;5062886;28;20208;-59
2022/06/15 01:16:54;;;;;;;5.10;3.20;;;13.50;1.00;;;;;;5045032;28;20195;-59
2022/06/15 01:19:34;;;;;;;8.03;3.63;;;13.40;7.60;;;;;;5040905;28;20297;-58
2022/06/15 01:22:26;;;;;;;5.97;3.80;;;13.40;18.20;;;;;;5060338;28;20195;-60
2022/06/15 01:25:05;;;;;;;11.20;3.87;;;13.40;34.30;;;;;;5062198;28;20567;-59
2022/06/15 01:28:29;;;;;;;12.77;4.03;;;13.40;22.30;;;;;;5049029;28;20202;-59
2022/06/15 01:31:15;;;;;;;8.57;3.60;;;13.30;33.80;;;;;;4986044;28;20200;-60
2022/06/15 01:33:56;;;;;;;8.80;4.00;;;13.30;44.10;;;;;;4985693;28;20189;-60
2022/06/15 01:36:49;;;;;;;8.33;4.00;;;13.20;44.00;;;;;;5046623;28;20206;-60
2022/06/15 01:39:18;;;;;;;5.70;3.53;;;13.20;48.00;;;;;;5059029;28;20215;-61
2022/06/15 01:42:08;;;;;;;5.70;3.53;;;13.20;79.90;;;;;;5059969;28;20195;-61
2022/06/15 01:44:43;;;;;;;6.00;3.27;;;13.20;85.00;;;;;;5061549;28;20210;-60
2022/06/15 01:47:18;;;;;;;9.20;3.90;;;13.20;77.80;;;;;;5052468;28;20201;-60
2022/06/15 01:50:00;;;;;;;7.77;3.30;;;13.10;87.10;;;;;;5052929;28;20212;-60
2022/06/15 01:52:34;;;;;;;6.00;3.70;;;13.10;79.70;;;;;;5060345;28;20562;-60
2022/06/15 01:55:14;;;;;;;6.57;3.60;;;13.10;90.70;;;;;;5060932;28;20218;-61
2022/06/15 01:57:45;;;;;;;5.70;3.53;;;13.10;93.50;;;;;;5046967;28;20214;-59
2022/06/15 02:00:18;;;;;;;6.37;4.27;;;13.10;89.70;;;;;;5050065;28;20199;-59
2022/06/15 02:02:45;;;;;;;6.93;3.57;;;13.10;99.90;;;;;;5066657;28;20836;-59
2022/06/15 02:05:37;;;;;;;8.40;3.60;;;13.00;99.90;;;;;;5045357;28;20250;-59
2022/06/15 02:08:15;;;;;;;8.70;3.67;;;13.00;99.90;;;;;;5050432;28;20278;-59
2022/06/15 02:10:55;;;;;;;6.77;3.67;;;13.00;99.90;;;;;;5047427;28;20198;-60
2022/06/15 02:13:57;;;;;;;7.43;3.87;;;12.90;99.90;;;;;;5046970;28;20253;-60
2022/06/15 02:16:51;;;;;;;6.93;4.07;;;12.90;99.90;;;;;;5034934;28;20202;-60
2022/06/15 02:19:25;;;;;;;9.50;4.20;;;12.80;99.90;;;;;;5045020;28;20231;-60
2022/06/15 02:21:53;;;;;;;7.73;4.23;;;12.80;99.90;;;;;;5064413;28;20237;-60
2022/06/15 02:24:23;;;;;;;6.53;3.67;;;12.80;99.90;;;;;;5046734;28;20210;-62
2022/06/15 02:26:51;;;;;;;8.33;4.20;;;12.70;99.90;;;;;;5046786;28;20214;-61
2022/06/15 02:29:23;;;;;;;13.13;4.17;;;13.10;1.00;;;;;;5044059;28;20246;-59
2022/06/15 02:31:55;;;;;;;6.03;4.53;;;12.70;99.90;;;;;;5050758;28;20665;-60
2022/06/15 02:34:24;;;;;;;7.80;4.73;;;12.70;99.90;;;;;;5058579;28;20203;-62
2022/06/15 02:36:52;;;;;;;13.43;5.47;;;12.70;99.90;;;;;;5060186;28;20658;-60
2022/06/15 02:39:21;;;;;;;9.30;4.70;;;12.60;99.90;;;;;;5050131;28;20273;-60
2022/06/15 02:41:59;;;;;;;6.00;3.93;;;13.30;99.90;;;;;;5059551;28;20561;-60
2022/06/15 02:44:32;;;;;;;10.60;7.03;;;13.30;99.90;;;;;;5042710;28;20441;-60
2022/06/15 02:47:01;;;;;;;7.67;5.20;;;13.80;99.10;;;;;;5047112;28;20274;-60
2022/06/15 02:49:29;;;;;;;12.97;7.03;;;;;;;;;;5050377;28;20210;-60
2022/06/15 02:52:01;;;;;;;11.37;6.07;;;14.10;1.00;;;;;;5041122;28;20195;-60
2022/06/15 02:54:43;;;;;;;7.77;4.63;;;14.10;1.00;;;;;;5063728;28;20689;-61
2022/06/15 02:57:15;;;;;;;9.67;4.37;;;14.10;1.00;;;;;;5060596;28;20202;-61
2022/06/15 02:59:45;;;;;;;11.63;6.80;;;14.30;1.00;;;;;;5060797;28;20207;-60
2022/06/15 03:02:14;;;;;;;11.03;6.07;;;14.40;1.00;;;;;;5047007;28;20204;-60
2022/06/15 03:04:45;;;;;;;11.00;6.40;;;13.90;1.00;;;;;;5058422;28;21325;-61
2022/06/15 03:07:13;;;;;;;14.23;7.67;;;13.80;99.90;;;;;;5042252;28;20206;-60
2022/06/15 03:09:41;;;;;;;9.00;5.27;;;14.20;1.00;;;;;;5062269;28;20191;-60
2022/06/15 03:12:12;;;;;;;7.77;4.40;;;14.20;99.90;;;;;;5062398;28;20199;-59
2022/06/15 03:14:39;;;;;;;9.37;6.03;;;14.20;1.00;;;;;;5057640;28;20187;-59
2022/06/15 03:17:11;;;;;;;12.17;5.13;;;14.10;1.00;;;;;;5045270;28;20200;-60
2022/06/15 03:19:55;;;;;;;7.73;3.83;;;14.40;99.90;;;;;;5053897;28;20369;-61
2022/06/15 03:22:22;;;;;;;7.20;4.10;;;14.30;99.90;;;;;;5022452;28;20240;-59
2022/06/15 03:24:54;;;;;;;7.63;3.80;;;14.40;99.90;;;;;;5054317;28;20208;-59
2022/06/15 03:27:21;;;;;;;6.90;3.30;;;14.20;99.90;;;;;;5024112;28;20710;-59
2022/06/15 03:29:50;;;;;;;10.53;3.67;;;14.10;1.00;;;;;;5019877;28;20199;-59
2022/06/15 03:32:22;;;;;;;8.13;3.60;;;14.00;99.90;;;;;;5017867;28;20797;-59
2022/06/15 03:34:55;;;;;;;8.53;3.93;;;14.20;1.00;;;;;;5022252;28;20193;-59
2022/06/15 03:37:22;;;;;;;6.77;3.60;;;14.30;99.90;;;;;;5023011;28;20192;-59
2022/06/15 03:39:54;;;;;;;9.07;3.63;;;14.10;99.90;;;;;;5024655;28;20204;-60
2022/06/15 03:42:24;;;;;;;11.33;3.83;;;14.10;1.00;;;;;;5020281;28;20204;-59
2022/06/15 03:44:53;;;;;;;14.33;6.40;;;13.80;99.90;;;;;;5026462;28;20239;-59
2022/06/15 03:47:26;;;;;;;13.77;10.97;;;14.20;1.00;;;;;;5016143;28;20196;-59
2022/06/15 03:49:54;;;;;;;15.00;7.80;;;14.00;99.90;;;;;;5020565;28;20289;-61
2022/06/15 03:52:25;;;;;;;12.17;6.03;;;14.70;1.00;;;;;;5024947;28;20193;-60
2022/06/15 03:54:52;;;;;;;13.90;6.70;;;14.70;1.00;;;;;;5052189;28;20559;-60
2022/06/15 03:57:21;;;;;;;9.47;3.83;;;13.80;1.00;;;;;;5031579;28;20205;-60
2022/06/15 03:59:50;;;;;;;8.77;4.20;;;16.00;1.00;;;;;;5025702;28;20826;-61
2022/06/15 04:02:55;;;;;;;10.15;4.53;;;16.10;1.00;;;;;;5022159;28;20200;-59
2022/06/15 04:05:54;;;;;;;9.60;3.67;;;16.30;1.00;;;;;;4989110;28;20315;-60
2022/06/15 04:08:36;;;;;;;10.45;5.32;;;17.20;1.00;;;;;;5020393;28;20202;-59
2022/06/15 04:14:21;;;;;;;9.70;4.57;;;17.50;1.00;;;;;;5022569;28;20196;-59
2022/06/15 04:16:59;;;;;;;7.78;3.20;;;17.60;99.90;;;;;;5035742;28;20257;-59
2022/06/15 04:20:31;;;;;;;10.85;3.75;;;18.00;99.90;;;;;;5017631;28;20225;-60
2022/06/15 04:22:37;;;;;;;5.10;2.92;;;18.30;99.90;;;;;;5017720;28;20192;-60
2022/06/15 04:25:04;;;;;;;8.82;3.35;;;18.10;99.90;;;;;;5026542;28;20242;-59
2022/06/15 04:27:32;;;;;;;7.35;2.67;;;18.30;99.90;;;;;;5023991;28;20208;-61
2022/06/15 04:30:00;;;;;;;6.10;3.53;;;18.70;99.90;;;;;;5017205;28;20196;-59
2022/06/15 04:32:29;;;;;;;9.13;3.90;;;18.20;99.90;;;;;;5019734;28;20215;-60
2022/06/15 04:34:59;;;;;;;7.88;3.10;;;18.90;99.90;;;;;;5026697;28;20255;-59
2022/06/15 04:37:27;;;;;;;7.60;2.97;;;18.70;99.90;;;;;;5018100;28;20284;-60
2022/06/15 04:39:59;;;;;;;5.72;2.63;;;;;;;;;;5020139;28;20660;-59
2022/06/15 04:42:26;;;;;;;5.80;3.28;;;19.00;1.00;;;;;;5025981;28;20204;-60
2022/06/15 04:44:54;;;;;;;7.35;3.03;;;19.70;1.00;;;;;;5035086;28;20216;-60
2022/06/15 04:47:22;;;;;;;7.63;3.20;;;19.70;99.90;;;;;;5001184;28;20199;-60
2022/06/15 04:49:49;;;;;;;7.72;3.65;;;20.10;99.90;;;;;;5001156;28;20693;-60
2022/06/15 04:52:16;;;;;;;7.68;3.83;;;20.20;1.00;;;;;;5017450;28;20200;-59
2022/06/15 04:54:44;;;;;;;4.82;2.90;;;20.50;99.90;;;;;;5036001;28;20571;-59
2022/06/15 04:57:11;;;;;;;12.50;3.17;;;19.90;99.90;;;;;;5019671;28;20731;-59
2022/06/15 04:59:39;;;;;;;9.70;2.90;;;20.40;1.00;;;;;;5030700;28;20240;-59
2022/06/15 05:02:06;;;;;;;8.30;3.65;;;;;;;;;;5019260;28;20207;-59
2022/06/15 05:04:40;;;;;;;5.97;3.05;;;20.50;99.90;;;;;;5001024;28;20209;-59
2022/06/15 05:07:09;;;;;;;6.38;2.83;;;;;;;;;;5018716;28;20220;-59
2022/06/15 05:09:40;;;;;;;5.13;2.67;;;22.00;99.90;;;;;;5023801;28;20189;-59
2022/06/15 05:12:08;;;;;;;6.18;2.83;;;21.60;1.00;;;;;;5033858;28;20197;-60
2022/06/15 05:14:38;;;;;;;5.90;3.13;;;22.00;1.00;;;;;;5017276;28;20215;-60
2022/06/15 05:17:06;;;;;;;4.32;2.53;;;22.20;99.90;;;;;;5018242;28;20200;-60
2022/06/15 05:19:36;;;;;;;7.63;2.90;;;22.50;99.90;;;;;;5037677;28;20230;-60
2022/06/15 05:22:03;;;;;;;8.35;2.90;;;23.10;1.00;;;;;;5042102;28;20306;-60
2022/06/15 05:24:32;;;;;;;6.18;2.80;;;23.70;1.00;;;;;;5045363;28;21550;-60
2022/06/15 05:27:02;;;;;;;7.22;2.85;;;22.80;1.00;;;;;;5041022;28;20195;-60
2022/06/15 05:29:29;;;;;;;7.35;2.95;;;22.80;1.00;;;;;;5057474;28;20210;-60
2022/06/15 05:32:08;;;;;;;7.82;3.00;;;22.50;99.90;;;;;;5048760;28;20206;-60
2022/06/15 05:34:36;;;;;;;6.78;3.53;;;22.20;99.90;;;;;;5043375;28;20231;-60
2022/06/15 05:37:04;;;;;;;7.63;3.38;;;23.20;1.00;;;;;;5040868;28;20196;-59
2022/06/15 05:39:35;;;;;;;5.75;3.35;;;23.30;99.90;;;;;;5042827;28;20226;-60
2022/06/15 05:42:04;;;;;;;7.25;3.53;;;23.90;99.90;;;;;;5050888;28;20204;-60
2022/06/15 05:47:01;;;;;;;7.75;3.00;;;24.80;99.90;;;;;;5056543;28;20211;-60
2022/06/15 05:49:37;;;;;;;7.82;3.20;;;25.20;99.90;;;;;;5038058;28;20203;-60
2022/06/15 05:52:07;;;;;;;7.35;3.17;;;25.10;99.90;;;;;;5055949;28;20195;-60
2022/06/15 05:54:36;;;;;;;7.82;3.75;;;25.30;99.90;;;;;;5055553;28;20208;-59
2022/06/15 05:57:11;;;;;;;7.38;2.90;;;25.30;99.90;;;;;;5054590;28;20211;-60
2022/06/15 05:59:45;;;;;;;7.40;3.15;;;26.50;99.90;;;;;;5039073;28;20712;-59
2022/06/15 06:02:12;;;;;;;7.75;3.42;;;27.30;99.90;;;;;;5045838;28;20763;-60
2022/06/15 06:04:39;;;;;;;6.70;3.25;;;27.00;99.90;;;;;;5041542;28;20298;-60
2022/06/15 06:07:10;;;;;;;5.13;2.92;;;26.60;99.90;;;;;;5043213;28;20275;-60
2022/06/15 06:09:38;;;;;;;7.07;2.92;;;27.00;99.90;;;;;;5040613;28;20196;-59
2022/06/15 06:12:07;;;;;;;5.90;3.00;;;27.00;99.90;;;;;;5040511;28;20283;-60
2022/06/15 06:14:34;;;;;;;8.18;3.78;;;27.20;99.90;;;;;;5041949;28;20721;-59
2022/06/15 06:17:00;;;;;;;6.43;2.88;;;27.60;99.90;;;;;;5041368;28;20547;-59
2022/06/15 06:19:27;;;;;;;8.43;2.60;;;27.70;99.90;;;;;;5044674;28;20676;-60
2022/06/15 06:21:54;;;;;;;7.28;3.17;;;28.30;99.90;;;;;;5044493;28;20195;-59
2022/06/15 06:24:21;;;;;;;6.75;3.03;;;28.30;99.90;;;;;;5038823;28;20253;-59
2022/06/15 06:26:48;;;;;;;6.05;2.47;;;28.00;99.90;;;;;;5035015;28;20200;-59
2022/06/15 06:29:16;;;;;;;4.75;2.97;;;28.10;99.90;;;;;;5042219;28;20253;-59
2022/06/15 06:31:44;;;;;;;10.93;8.07;;;29.30;99.90;;;;;;5033396;28;20207;-60
2022/06/15 06:34:11;;;;;;;7.10;3.65;;;30.70;99.90;;;;;;5031010;28;20242;-60
2022/06/15 06:36:46;;;;;;;7.32;2.60;;;30.20;99.90;;;;;;5032932;28;20211;-60
2022/06/15 06:39:14;;;;;;;11.63;5.55;;;;;;;;;;5032227;28;21258;-60
2022/06/15 06:41:42;;;;;;;11.38;5.60;;;;;;;;;;5033341;28;20203;-60
2022/06/15 06:44:10;;;;;;;16.20;7.20;;;32.10;99.90;;;;;;5052466;28;20208;-60
2022/06/15 06:46:42;;;;;;;5.28;2.90;;;32.80;99.90;;;;;;5037232;28;20216;-60
2022/06/15 06:49:09;;;;;;;14.90;4.35;;;32.80;99.90;;;;;;5032763;28;20937;-60
2022/06/15 06:51:38;;;;;;;7.40;3.03;;;31.10;99.90;;;;;;5035149;28;20573;-60
2022/06/15 06:54:07;;;;;;;5.82;2.90;;;31.20;99.90;;;;;;5037963;28;20207;-60
2022/06/15 06:56:35;;;;;;;7.88;3.72;;;30.30;99.90;;;;;;5042533;28;20269;-60
2022/06/15 06:59:05;;;;;;;6.40;2.90;;;31.00;99.90;;;;;;5035428;28;20797;-60
2022/06/15 07:01:33;;;;;;;9.55;2.38;;;31.10;99.90;;;;;;5034208;28;20200;-60
2022/06/15 07:04:00;;;;;;;6.32;2.75;;;31.50;96.10;;;;;;5039192;28;20329;-60
2022/06/15 07:06:27;;;;;;;9.82;4.32;;;32.60;94.10;;;;;;5037791;28;20224;-60
2022/06/15 07:10:07;;;;;;;6.28;2.80;;;33.80;94.20;;;;;;5155229;27;20556;-58
2022/06/15 07:12:36;;;;;;;8.88;3.35;;;33.90;99.90;;;;;;5111242;28;20196;-58
2022/06/15 07:15:06;;;;;;;6.72;2.92;;;34.10;99.90;;;;;;5105830;28;20211;-59
2022/06/15 07:17:33;;;;;;;5.35;2.90;;;34.60;99.90;;;;;;5097981;28;20210;-60
2022/06/15 07:20:00;;;;;;;9.48;3.50;;;34.00;99.90;;;;;;5115218;28;20671;-60
2022/06/15 07:22:27;;;;;;;6.35;2.55;;;35.00;99.90;;;;;;5116191;28;20255;-60
2022/06/15 07:24:56;;;;;;;4.95;2.97;;;35.30;99.10;;;;;;5112647;28;20197;-60
2022/06/15 07:27:24;;;;;;;7.82;3.13;;;34.40;99.00;;;;;;5092536;28;20197;-60
2022/06/15 07:29:52;;;;;;;5.78;2.63;;;34.70;99.90;;;;;;5079194;28;20332;-60
2022/06/15 07:32:19;;;;;;;6.80;2.50;;;34.80;98.60;;;;;;5098112;28;20190;-60
2022/06/15 07:34:46;;;;;;;6.82;2.90;;;36.20;99.90;;;;;;5098209;28;21057;-60
2022/06/15 07:37:13;;;;;;;5.68;2.47;;;37.10;90.70;;;;;;5095918;28;22897;-60
2022/06/15 07:40:00;;;;;;;6.35;2.40;;;39.10;89.20;;;;;;5071163;28;20193;-59
2022/06/15 07:42:27;;;;;;;14.52;2.83;;;39.20;97.50;;;;;;5057442;28;20206;-59
2022/06/15 07:44:54;;;;;;;6.60;2.63;;;36.30;95.20;;;;;;5067804;28;20282;-60
2022/06/15 07:50:09;;;;;;;9.82;3.08;;;34.40;94.80;;;;;;5082000;28;20197;-60
2022/06/15 07:52:56;;;;;;;5.78;2.03;;;34.40;96.60;;;;;;5062537;28;20219;-60
2022/06/15 07:55:27;;;;;;;5.32;2.53;;;36.50;96.10;;;;;;5075267;28;20671;-60
2022/06/15 07:57:54;;;;;;;9.13;2.42;;;37.30;94.90;;;;;;5067137;28;20193;-60
2022/06/15 08:00:23;;;;;;;5.88;2.30;;;38.20;80.70;;;;;;5057094;28;20272;-60
2022/06/15 08:02:51;;;;;;;6.18;2.60;;;39.60;94.30;;;;;;5062655;28;20289;-58
2022/06/15 08:05:19;;;;;;;7.13;2.65;;;40.40;92.40;;;;;;5031267;28;21348;-59
2022/06/15 08:07:47;;;;;;;5.18;2.28;;;40.60;76.20;;;;;;5088636;28;20569;-58
2022/06/15 08:10:21;;;;;;;6.40;2.67;;;41.20;91.70;;;;;;5086119;28;20288;-58
2022/06/15 08:12:49;;;;;;;6.38;2.13;;;38.80;69.90;;;;;;5087843;28;20636;-58
2022/06/15 08:15:17;;;;;;;5.45;3.13;;;38.20;79.70;;;;;;5073312;28;20235;-60
2022/06/15 08:17:52;;;;;;;4.68;3.10;;;38.30;90.40;;;;;;5089780;28;20193;-58
2022/06/15 08:20:37;;;;;;;4.88;2.30;;;38.60;70.20;;;;;;5061449;28;20201;-59
2022/06/15 08:23:09;;;;;;;6.20;2.70;;;40.40;68.60;;;;;;5074743;28;20217;-58
2022/06/15 08:25:41;;;;;;;8.80;2.58;;;38.20;64.70;;;;;;5076919;28;20194;-58
2022/06/15 08:28:10;;;;;;;6.28;2.60;;;39.30;66.40;;;;;;5075272;28;20660;-59
2022/06/15 08:30:37;;;;;;;4.57;3.53;;;39.20;68.20;;;;;;5053002;28;20209;-59
2022/06/15 08:33:06;;;;;;;6.90;3.17;;;38.80;83.80;;;;;;5051696;28;20399;-60
2022/06/15 08:35:36;;;;;;;6.03;2.95;;;37.60;99.90;;;;;;5074432;28;20206;-59
2022/06/15 08:38:09;;;;;;;5.43;2.85;;;36.10;65.10;;;;;;5077182;28;20351;-58
2022/06/15 08:41:02;;;;;;;11.57;3.15;;;38.50;75.90;;;;;;5074581;28;20194;-59
2022/06/15 08:43:52;;;;;;;9.40;2.50;;;38.80;87.20;;;;;;5064495;28;20688;-58
2022/06/15 08:46:39;;;;;;;5.78;2.88;;;38.70;84.10;;;;;;5071870;28;20622;-59
2022/06/15 08:49:44;;;;;;;6.05;2.33;;;36.00;57.50;;;;;;5081655;28;20273;-59
2022/06/15 08:52:30;;;;;;;3.78;2.50;;;38.10;64.10;;;;;;5044985;28;20216;-59
2022/06/15 08:55:08;;;;;;;8.90;2.30;;;38.30;83.40;;;;;;5060063;28;20220;-59
2022/06/15 08:57:50;;;;;;;7.50;2.97;;;40.20;82.30;;;;;;5078370;28;20190;-60
2022/06/15 09:00:26;;;;;;;6.68;2.47;;;39.20;76.60;;;;;;5076322;28;20198;-60
2022/06/15 09:03:30;;;;;;;5.80;2.47;;;37.00;73.30;;;;;;5076338;28;20250;-60
2022/06/15 09:06:03;;;;;;;10.73;2.67;;;36.30;74.00;;;;;;5067175;28;20213;-60
2022/06/15 09:08:36;;;;;;;6.72;2.40;;;36.90;73.20;;;;;;5074999;28;20230;-59
2022/06/15 09:11:15;;;;;;;7.15;2.55;;;35.40;68.00;;;;;;5079067;28;20697;-59
2022/06/15 09:13:55;;;;;;;4.93;2.15;;;36.70;71.50;;;;;;5073623;28;20197;-60
2022/06/15 09:16:39;;;;;;;7.65;2.50;;;37.80;72.70;;;;;;5078158;28;20194;-59
2022/06/15 09:19:14;;;;;;;9.60;2.47;;;39.40;56.20;;;;;;5074632;28;20205;-58
2022/06/15 09:21:57;;;;;;;8.30;2.20;;;38.60;99.90;;;;;;5076757;28;20682;-58
2022/06/15 09:24:30;;;;;;;10.00;2.90;;;38.80;69.50;;;;;;5064367;28;20737;-58
2022/06/15 09:27:02;;;;;;;7.50;2.72;;;39.80;71.10;;;;;;5068341;28;20223;-59
2022/06/15 09:29:41;;;;;;;5.75;2.22;;;40.90;66.70;;;;;;5073363;28;20312;-58
2022/06/15 09:32:18;;;;;;;4.38;2.50;;;38.70;65.50;;;;;;5054170;28;20354;-58
2022/06/15 09:35:10;;;;;;;5.45;2.60;;;38.60;63.90;;;;;;5057009;28;20738;-58
2022/06/15 09:37:42;;;;;;;5.57;2.15;;;38.10;46.10;;;;;;5040775;28;20228;-58
2022/06/15 09:40:10;;;;;;;6.40;2.25;;;38.00;63.80;;;;;;5039587;28;20723;-60
2022/06/15 09:43:05;;;;;;;3.78;1.80;;;37.60;45.40;;;;;;5049614;28;20760;-59
2022/06/15 09:45:43;;;;;;;6.32;3.17;;;37.90;64.90;;;;;;5058479;28;20326;-60
2022/06/15 09:48:23;;;;;;;5.85;2.72;;;38.60;46.80;;;;;;5056884;28;20217;-59
2022/06/15 09:51:06;;;;;;;5.07;2.15;;;39.50;99.90;;;;;;5036036;28;20210;-60
2022/06/15 09:53:52;;;;;;;2.50;1.67;;;38.60;44.30;;;;;;5055562;28;20199;-59
2022/06/15 09:56:21;;;;;;;5.68;2.30;;;37.90;58.20;;;;;;5060588;28;20252;-60
2022/06/15 09:59:16;;;;;;;5.82;2.50;;;35.50;56.20;;;;;;5063021;28;20243;-60
2022/06/15 10:01:45;;;;;;;5.38;2.70;;;34.30;56.40;;;;;;5066340;28;20664;-59
2022/06/15 10:04:26;;;;;;;5.97;2.50;;;34.10;56.70;;;;;;5066151;28;20198;-59
2022/06/15 10:07:21;;;;;;;6.75;2.47;;;34.00;56.50;;;;;;5068242;28;20297;-59
2022/06/15 10:09:55;;;;;;;4.72;2.40;;;34.50;56.00;;;;;;5041923;28;20390;-60
2022/06/15 10:15:15;;;;;;;9.57;2.90;;;37.60;58.00;;;;;;5056199;28;20202;-58
2022/06/15 10:17:49;;;;;;;5.60;2.13;;;38.50;57.40;;;;;;5055086;28;20675;-58
2022/06/15 10:20:31;;;;;;;3.47;1.90;;;39.70;57.90;;;;;;5056474;28;20685;-58
2022/06/15 10:23:02;;;;;;;4.82;2.22;;;39.20;55.00;;;;;;5045466;28;20201;-60
2022/06/15 10:25:36;;;;;;;6.20;2.08;;;38.60;56.80;;;;;;5056420;28;20201;-60
2022/06/15 10:28:13;;;;;;;4.60;2.67;;;38.40;57.00;;;;;;5054183;28;20198;-60
2022/06/15 10:30:52;;;;;;;6.63;2.50;;;38.10;53.90;;;;;;5056911;28;20218;-59
2022/06/15 10:33:19;;;;;;;6.72;2.35;;;38.10;55.20;;;;;;5053518;28;20201;-60
2022/06/15 10:35:57;;;;;;;5.22;2.40;;;37.80;53.40;;;;;;5056965;28;20199;-60
2022/06/15 10:38:26;;;;;;;7.18;2.30;;;37.80;38.20;;;;;;5059643;28;20228;-61
2022/06/15 10:43:49;;;;;;;6.15;2.88;;;36.40;53.50;;;;;;5053812;28;20194;-58
2022/06/15 10:46:17;;;;;;;7.53;3.00;;;36.20;53.50;;;;;;5057477;28;20844;-58
2022/06/15 10:48:52;;;;;;;5.35;2.65;;;36.60;54.10;;;;;;5033180;28;20324;-59
2022/06/15 10:51:38;;;;;;;6.07;2.85;;;37.10;99.90;;;;;;5054279;28;20205;-59
2022/06/15 10:54:22;;;;;;;6.47;2.40;;;36.70;99.90;;;;;;5052272;28;20193;-59
2022/06/15 11:02:37;;;;;;;4.68;2.35;;;35.80;99.90;;;;;;5059424;28;20195;-59
2022/06/15 11:05:20;;;;;;;6.43;2.17;;;36.10;1.00;;;;;;5057841;28;20259;-60
2022/06/15 11:07:50;;;;;;;4.55;2.10;;;37.30;99.90;;;;;;5039122;28;21310;-59
2022/06/15 11:10:34;;;;;;;5.60;2.10;;;36.20;34.70;;;;;;5055993;28;20214;-59
2022/06/15 11:13:05;;;;;;;5.63;2.50;;;35.40;99.90;;;;;;5055189;28;20238;-59
2022/06/15 11:18:43;;;;;;;4.80;1.83;;;36.20;45.00;;;;;;5050677;28;20249;-59
2022/06/15 11:21:24;;;;;;;5.88;2.13;;;36.30;35.30;;;;;;5028543;28;20202;-59
2022/06/15 11:23:57;;;;;;;4.82;2.28;;;35.70;34.90;;;;;;5062796;28;20266;-59
2022/06/15 11:26:53;;;;;;;6.00;2.35;;;35.10;49.80;;;;;;5073151;28;20202;-59
2022/06/15 11:29:36;;;;;;;5.38;1.77;;;34.50;1.00;;;;;;5077842;28;20209;-58
2022/06/15 11:32:35;;;;;;;6.38;1.92;;;35.10;59.70;;;;;;5075541;28;20186;-60
2022/06/15 11:35:11;;;;;;;5.90;2.28;;;35.70;99.90;;;;;;5074678;28;20273;-59
2022/06/15 11:37:39;;;;;;;6.00;2.20;;;;;;;;;;5072448;28;20677;-59
2022/06/15 11:40:15;;;;;;;4.60;2.15;;;35.70;99.90;;;;;;5073886;28;20271;-60
2022/06/15 11:42:53;;;;;;;5.60;2.15;;;35.00;99.90;;;;;;5058407;28;20209;-60
2022/06/15 11:45:48;;;;;;;7.10;2.20;;;33.80;34.80;;;;;;5078361;28;20194;-58
2022/06/15 11:48:31;;;;;;;4.50;1.55;;;33.70;49.60;;;;;;5079895;28;20205;-60
2022/06/15 11:51:26;;;;;;;2.85;1.67;;;34.20;50.00;;;;;;5078848;28;20303;-60
2022/06/15 11:54:19;;;;;;;4.25;2.20;;;33.30;49.60;;;;;;5049234;28;20199;-59
2022/06/15 11:57:03;;;;;;;4.53;2.08;;;32.50;49.80;;;;;;5053918;28;20265;-59
2022/06/15 11:59:39;;;;;;;3.88;1.92;;;34.20;35.60;;;;;;5071261;28;20194;-59
2022/06/15 12:02:44;;;;;;;5.80;1.80;;;34.00;49.50;;;;;;5081067;28;20660;-60
2022/06/15 12:05:31;;;;;;;4.30;1.80;;;34.30;50.40;;;;;;5079586;28;20186;-60
2022/06/15 12:08:35;;;;;;;8.32;1.90;;;35.00;34.50;;;;;;5078533;28;20255;-59
2022/06/15 12:14:27;;;;;;;5.75;1.75;;;34.20;33.80;;;;;;5059278;28;20206;-60
2022/06/15 12:17:00;;;;;;;3.63;1.58;;;34.10;49.70;;;;;;5065781;28;20195;-59
2022/06/15 12:20:02;;;;;;;5.25;2.00;;;33.70;99.90;;;;;;5063572;28;20667;-59
2022/06/15 12:22:37;;;;;;;6.63;2.15;;;32.10;99.90;;;;;;5051752;28;20575;-59
2022/06/15 12:25:17;;;;;;;7.03;1.92;;;31.90;55.30;;;;;;5061523;28;20548;-59
2022/06/15 12:28:13;;;;;;;4.05;1.83;;;30.50;99.90;;;;;;5061699;28;20554;-59
2022/06/15 12:30:57;;;;;;;4.10;1.85;;;30.20;38.20;;;;;;5058306;28;20211;-59
2022/06/15 12:33:59;;;;;;;3.92;1.83;;;30.20;50.10;;;;;;5060757;28;20188;-60
2022/06/15 12:36:37;;;;;;;4.40;1.90;;;30.80;36.80;;;;;;5049520;28;20198;-58
2022/06/15 12:39:07;;;;;;;2.70;1.80;;;30.90;36.50;;;;;;5058200;28;20214;-58
2022/06/15 12:44:29;;;;;;;6.13;2.45;;;30.60;54.00;;;;;;5060186;28;20195;-59
2022/06/15 12:46:58;;;;;;;4.50;2.28;;;29.90;53.40;;;;;;5056739;28;20223;-58
2022/06/15 12:50:24;;;;;;;4.82;2.08;;;30.20;39.10;;;;;;5059573;28;20670;-58
2022/06/15 12:53:23;;;;;;;6.38;1.90;;;30.30;54.90;;;;;;5064799;28;20221;-59
2022/06/15 12:56:19;;;;;;;7.10;2.05;;;29.80;53.30;;;;;;5058948;28;20188;-58
2022/06/15 12:59:04;;;;;;;3.25;1.80;;;29.60;55.20;;;;;;5060092;28;20202;-59
2022/06/15 13:02:23;;;;;;;4.35;1.73;;;29.30;54.60;;;;;;5058496;28;20203;-59
2022/06/15 13:05:02;;;;;;;6.15;2.03;;;29.50;38.30;;;;;;5056941;28;20211;-59
2022/06/15 13:07:34;;;;;;;6.18;2.45;;;29.50;54.50;;;;;;5060900;28;20195;-59
2022/06/15 13:10:07;;;;;;;6.55;1.80;;;29.40;38.80;;;;;;5063964;28;20235;-58
2022/06/15 13:12:44;;;;;;;4.35;2.00;;;29.40;54.20;;;;;;5058945;28;20205;-58
2022/06/15 13:15:37;;;;;;;4.63;1.92;;;29.00;54.80;;;;;;5058569;28;20591;-58
2022/06/15 13:18:12;;;;;;;4.07;1.90;;;28.50;55.20;;;;;;5059652;28;20187;-59
2022/06/15 13:20:48;;;;;;;3.20;1.85;;;28.60;57.10;;;;;;5060046;28;20248;-60
2022/06/15 13:23:40;;;;;;;3.65;1.92;;;27.90;39.40;;;;;;5057216;28;20207;-59
2022/06/15 13:26:13;;;;;;;2.80;1.60;;;27.80;55.40;;;;;;5035623;28;20211;-59
2022/06/15 13:28:55;;;;;;;2.75;1.80;;;28.00;56.40;;;;;;5056506;28;20207;-59
2022/06/15 13:31:41;;;;;;;3.63;1.83;;;28.00;42.00;;;;;;5061906;28;20299;-59
2022/06/15 13:34:11;;;;;;;6.60;2.40;;;28.00;57.40;;;;;;5055450;28;20195;-58
2022/06/15 13:36:39;;;;;;;3.63;2.15;;;27.90;43.10;;;;;;5054064;28;20191;-59
2022/06/15 13:39:46;;;;;;;2.67;1.90;;;27.90;43.00;;;;;;5055386;28;20254;-60
2022/06/15 13:42:28;;;;;;;6.68;2.03;;;28.00;59.40;;;;;;5050613;28;20202;-59
2022/06/15 13:45:01;;;;;;;8.85;2.15;;;28.10;58.40;;;;;;5056446;28;20236;-59
2022/06/15 13:47:40;;;;;;;6.13;2.13;;;28.30;57.50;;;;;;5059186;28;20199;-59
2022/06/15 13:50:11;;;;;;;4.20;2.20;;;28.40;57.80;;;;;;5057823;28;20203;-59
2022/06/15 13:52:41;;;;;;;3.58;1.90;;;28.50;57.60;;;;;;5041222;28;20200;-59
2022/06/15 13:55:19;;;;;;;4.50;1.92;;;28.60;57.10;;;;;;5061137;28;20221;-59
2022/06/15 13:58:25;;;;;;;4.07;1.80;;;28.70;56.30;;;;;;5064172;28;20321;-59
2022/06/15 14:01:28;;;;;;;5.88;2.33;;;28.40;56.90;;;;;;4989460;28;20223;-59
2022/06/15 14:04:26;;;;;;;6.60;2.20;;;28.10;60.00;;;;;;5056292;28;20198;-59
2022/06/15 14:07:20;;;;;;;6.43;2.10;;;28.10;57.70;;;;;;5060584;28;20195;-59